createdAt,value
2022-08-01T00:00:08.995Z,98947.72
2022-08-01T00:02:38.974Z,98943.91
2022-08-01T00:05:07.102Z,98943.00
2022-08-01T00:07:37.593Z,98943.47
2022-08-01T00:10:05.697Z,98944.56
2022-08-01T00:12:32.857Z,98941.28
2022-08-01T00:15:00.020Z,98939.88
2022-08-01T00:17:27.460Z,98939.72
2022-08-01T00:19:54.647Z,98939.34
2022-08-01T00:22:21.826Z,98932.09
2022-08-01T00:24:49.265Z,98924.13
2022-08-01T00:27:16.428Z,98929.69
2022-08-01T00:30:10.756Z,98928.28
2022-08-01T00:32:31.871Z,98926.47
2022-08-01T00:34:59.047Z,98918.19
2022-08-01T00:37:26.264Z,98928.38
2022-08-01T00:39:53.755Z,98925.97
2022-08-01T00:42:20.946Z,98916.28
2022-08-01T00:44:48.107Z,98918.19
2022-08-01T00:47:15.584Z,98919.09
2022-08-01T00:49:42.804Z,98914.41
2022-08-01T00:52:10.120Z,98912.91
2022-08-01T00:54:37.589Z,98917.81
2022-08-01T00:57:04.840Z,98920.75
2022-08-01T00:59:37.280Z,98921.63
2022-08-01T01:02:05.118Z,98918.63
2022-08-01T01:04:42.285Z,98922.47
2022-08-01T01:07:21.748Z,98921.75
2022-08-01T01:09:53.603Z,98924.28
2022-08-01T01:12:38.291Z,98926.47
2022-08-01T01:15:06.052Z,98924.00
2022-08-01T01:17:49.735Z,98924.41
2022-08-01T01:20:18.984Z,98929.69
2022-08-01T01:22:46.350Z,98932.44
2022-08-01T01:25:32.490Z,98926.87
2022-08-01T01:28:01.258Z,98925.19
2022-08-01T01:30:29.313Z,98927.63
2022-08-01T01:32:56.553Z,98924.41
2022-08-01T01:35:25.550Z,98922.50
2022-08-01T01:37:54.680Z,98928.47
2022-08-01T01:40:21.910Z,98925.41
2022-08-01T01:42:49.399Z,98914.22
2022-08-01T01:45:16.566Z,98914.22
2022-08-01T01:47:43.743Z,98913.78
2022-08-01T01:50:11.250Z,98916.91
2022-08-01T01:52:39.224Z,98914.62
2022-08-01T01:55:07.067Z,98916.16
2022-08-01T01:57:34.553Z,98915.34
2022-08-01T02:00:01.734Z,98909.09
2022-08-01T02:02:29.085Z,98907.78
2022-08-01T02:04:56.574Z,98906.13
2022-08-01T02:07:25.318Z,98910.81
2022-08-01T02:09:52.528Z,98906.88
2022-08-01T02:12:20.103Z,98904.28
2022-08-01T02:14:47.310Z,98896.81
2022-08-01T02:17:16.637Z,98888.75
2022-08-01T02:19:44.111Z,98893.06
2022-08-01T02:22:12.586Z,98893.25
2022-08-01T02:24:44.885Z,98883.59
2022-08-01T02:27:25.940Z,98882.59
2022-08-01T02:29:55.852Z,98881.66
2022-08-01T02:32:42.738Z,98884.75
2022-08-01T02:35:31.346Z,98892.34
2022-08-01T02:37:59.083Z,98888.03
2022-08-01T02:40:28.573Z,98893.69
2022-08-01T02:42:55.893Z,98897.84
2022-08-01T02:45:23.806Z,98901.09
2022-08-01T02:47:51.084Z,98898.28
2022-08-01T02:50:18.245Z,98891.41
2022-08-01T02:52:47.553Z,98889.59
2022-08-01T02:55:14.726Z,98886.88
2022-08-01T02:57:51.831Z,98887.50
2022-08-01T03:00:20.241Z,98885.25
2022-08-01T03:02:51.583Z,98885.66
2022-08-01T03:05:18.960Z,98874.06
2022-08-01T03:07:48.528Z,98881.16
2022-08-01T03:10:17.140Z,98877.38
2022-08-01T03:12:44.608Z,98871.97
2022-08-01T03:15:14.418Z,98879.53
2022-08-01T03:17:42.063Z,98874.38
2022-08-01T03:20:09.764Z,98880.06
2022-08-01T03:22:37.222Z,98873.44
2022-08-01T03:25:04.592Z,98877.59
2022-08-01T03:27:31.752Z,98876.06
2022-08-01T03:29:59.172Z,98871.16
2022-08-01T03:32:26.969Z,98865.91
2022-08-01T03:34:54.231Z,98872.78
2022-08-01T03:37:32.807Z,98871.25
2022-08-01T03:40:01.884Z,98868.34
2022-08-01T03:42:32.518Z,98869.03
2022-08-01T03:45:00.623Z,98871.56
2022-08-01T03:47:30.820Z,98874.22
2022-08-01T03:49:58.892Z,98874.72
2022-08-01T03:52:26.913Z,98871.38
2022-08-01T03:54:55.593Z,98870.50
2022-08-01T03:57:35.736Z,98875.09
2022-08-01T04:00:07.780Z,98874.34
2022-08-01T04:02:39.379Z,98882.22
2022-08-01T04:07:36.611Z,98887.72
2022-08-01T04:10:04.463Z,98890.66
2022-08-01T04:12:31.986Z,98897.06
2022-08-01T04:14:59.649Z,98898.59
2022-08-01T04:17:26.816Z,98899.81
2022-08-01T04:19:54.266Z,98905.69
2022-08-01T04:22:21.599Z,98900.69
2022-08-01T04:24:56.966Z,98899.06
2022-08-01T04:27:49.177Z,98908.84
2022-08-01T04:30:12.769Z,98894.75
2022-08-01T04:32:45.689Z,98899.78
2022-08-01T04:35:23.099Z,98905.81
2022-08-01T04:38:02.676Z,98895.72
2022-08-01T04:40:29.840Z,98891.59
2022-08-01T04:42:57.032Z,98891.00
2022-08-01T04:45:24.489Z,98896.41
2022-08-01T04:47:51.653Z,98896.22
2022-08-01T04:50:18.907Z,98904.53
2022-08-01T04:52:46.375Z,98904.56
2022-08-01T04:55:14.183Z,98901.91
2022-08-01T04:57:42.239Z,98902.87
2022-08-01T05:00:09.873Z,98895.34
2022-08-01T05:02:37.513Z,98897.63
2022-08-01T05:05:07.044Z,98904.66
2022-08-01T05:07:44.365Z,98905.50
2022-08-01T05:10:12.811Z,98897.72
2022-08-01T05:12:40.527Z,98907.75
2022-08-01T05:15:13.164Z,98905.47
2022-08-01T05:17:43.460Z,98898.47
2022-08-01T05:20:11.361Z,98895.31
2022-08-01T05:22:38.755Z,98893.66
2022-08-01T05:25:06.593Z,98896.75
2022-08-01T05:27:38.724Z,98894.94
2022-08-01T05:30:09.633Z,98898.03
2022-08-01T05:32:37.012Z,98891.34
2022-08-01T05:35:04.371Z,98894.63
2022-08-01T05:37:31.806Z,98892.34
2022-08-01T05:39:59.083Z,98889.63
2022-08-01T05:42:26.243Z,98890.31
2022-08-01T05:44:53.729Z,98893.16
2022-08-01T05:47:20.904Z,98898.84
2022-08-01T05:49:48.100Z,98890.34
2022-08-01T05:52:15.566Z,98899.41
2022-08-01T05:54:42.748Z,98900.69
2022-08-01T05:57:09.921Z,98900.19
2022-08-01T05:59:38.642Z,98900.38
2022-08-01T06:02:06.035Z,98900.84
2022-08-01T06:04:33.789Z,98893.13
2022-08-01T06:07:00.994Z,98901.50
2022-08-01T06:09:28.268Z,98904.41
2022-08-01T06:11:55.722Z,98913.69
2022-08-01T06:14:22.908Z,98917.91
2022-08-01T06:16:50.112Z,98916.00
2022-08-01T06:19:17.568Z,98919.00
2022-08-01T06:21:44.766Z,98909.31
2022-08-01T06:24:11.949Z,98915.97
2022-08-01T06:26:39.404Z,98912.16
2022-08-01T06:29:06.589Z,98917.78
2022-08-01T06:31:37.150Z,98914.28
2022-08-01T06:34:04.652Z,98911.34
2022-08-01T06:36:31.835Z,98909.78
2022-08-01T06:38:59.000Z,98909.34
2022-08-01T06:41:26.473Z,98914.81
2022-08-01T06:43:53.658Z,98918.13
2022-08-01T06:46:20.845Z,98918.53
2022-08-01T06:48:48.330Z,98923.28
2022-08-01T06:51:18.635Z,98926.47
2022-08-01T06:53:45.815Z,98927.19
2022-08-01T06:56:13.310Z,98921.91
2022-08-01T06:58:40.651Z,98923.34
2022-08-01T07:01:08.442Z,98921.75
2022-08-01T07:03:52.822Z,98921.63
2022-08-01T07:06:25.570Z,98924.94
2022-08-01T07:08:53.338Z,98911.97
2022-08-01T07:11:21.198Z,98908.78
2022-08-01T07:13:48.393Z,98908.75
2022-08-01T07:16:16.214Z,98908.88
2022-08-01T07:18:43.430Z,98918.31
2022-08-01T07:21:38.388Z,98919.37
2022-08-01T07:23:58.149Z,98915.16
2022-08-01T07:26:27.689Z,98907.62
2022-08-01T07:28:54.887Z,98914.66
2022-08-01T07:31:22.466Z,98916.31
2022-08-01T07:33:50.064Z,98921.63
2022-08-01T07:36:17.648Z,98921.41
2022-08-01T07:38:45.330Z,98923.47
2022-08-01T07:41:12.641Z,98930.91
2022-08-01T07:43:39.816Z,98923.66
2022-08-01T07:46:07.530Z,98927.44
2022-08-01T07:48:34.739Z,98935.25
2022-08-01T07:51:01.934Z,98931.47
2022-08-01T07:53:30.169Z,98938.00
2022-08-01T07:55:57.370Z,98930.50
2022-08-01T07:58:24.548Z,98930.84
2022-08-01T08:00:51.999Z,98935.19
2022-08-01T08:03:19.468Z,98931.31
2022-08-01T08:05:57.689Z,98921.69
2022-08-01T08:08:27.185Z,98927.97
2022-08-01T08:10:54.615Z,98920.84
2022-08-01T08:13:21.820Z,98940.59
2022-08-01T08:15:49.504Z,98940.91
2022-08-01T08:18:16.739Z,98940.00
2022-08-01T08:20:44.325Z,98938.22
2022-08-01T08:23:42.545Z,98932.66
2022-08-01T08:26:13.642Z,98943.34
2022-08-01T08:28:41.082Z,98941.72
2022-08-01T08:31:25.226Z,98943.75
2022-08-01T08:33:53.318Z,98945.41
2022-08-01T08:36:20.498Z,98944.50
2022-08-01T08:38:47.967Z,98948.44
2022-08-01T08:41:20.676Z,98951.44
2022-08-01T08:43:48.461Z,98959.47
2022-08-01T08:46:16.025Z,98952.50
2022-08-01T08:48:43.338Z,98957.56
2022-08-01T08:51:12.351Z,98959.59
2022-08-01T08:53:46.126Z,98952.91
2022-08-01T08:56:14.354Z,98959.69
2022-08-01T08:58:42.533Z,98961.12
2022-08-01T09:01:09.925Z,98959.53
2022-08-01T09:03:37.533Z,98963.53
2022-08-01T09:06:05.126Z,98955.50
2022-08-01T09:08:32.527Z,98965.44
2022-08-01T09:10:59.767Z,98961.38
2022-08-01T09:13:27.238Z,98961.91
2022-08-01T09:15:55.037Z,98958.28
2022-08-01T09:18:31.438Z,98964.19
2022-08-01T09:21:17.990Z,98960.53
2022-08-01T09:23:53.542Z,98963.66
2022-08-01T09:26:23.181Z,98956.53
2022-08-01T09:28:51.820Z,98957.47
2022-08-01T09:31:19.731Z,98956.37
2022-08-01T09:33:47.834Z,98959.94
2022-08-01T09:36:17.943Z,98961.44
2022-08-01T09:38:50.792Z,98950.28
2022-08-01T09:41:18.260Z,98957.66
2022-08-01T09:43:51.251Z,98952.72
2022-08-01T09:46:20.527Z,98956.16
2022-08-01T09:48:57.065Z,98956.87
2022-08-01T09:51:59.043Z,98955.69
2022-08-01T09:54:28.716Z,98957.59
2022-08-01T09:56:55.939Z,98956.13
2022-08-01T09:59:26.375Z,98944.56
2022-08-01T10:01:59.272Z,98944.75
2022-08-01T10:04:28.535Z,98946.44
2022-08-01T10:07:04.593Z,98953.38
2022-08-01T10:09:40.336Z,98949.84
2022-08-01T10:12:09.155Z,98944.69
2022-08-01T10:14:46.326Z,98947.59
2022-08-01T10:17:18.092Z,98952.72
2022-08-01T10:19:46.454Z,98949.69
2022-08-01T10:22:20.008Z,98963.66
2022-08-01T10:24:48.266Z,98943.13
2022-08-01T10:27:24.563Z,98952.81
2022-08-01T10:30:14.158Z,98946.66
2022-08-01T10:32:50.487Z,98945.66
2022-08-01T10:35:47.024Z,98935.56
2022-08-01T10:38:06.510Z,98939.13
2022-08-01T10:40:38.701Z,98932.84
2022-08-01T10:43:07.112Z,98942.31
2022-08-01T10:45:34.455Z,98924.78
2022-08-01T10:48:06.164Z,98929.06
2022-08-01T10:50:35.130Z,98926.78
2022-08-01T10:53:16.023Z,98927.03
2022-08-01T10:55:51.656Z,98922.97
2022-08-01T10:58:42.880Z,98927.13
2022-08-01T11:01:15.915Z,98920.56
2022-08-01T11:03:56.557Z,98918.94
2022-08-01T11:06:45.270Z,98916.34
2022-08-01T11:09:16.437Z,98912.22
2022-08-01T11:12:05.714Z,98904.94
2022-08-01T11:14:53.993Z,98921.75
2022-08-01T11:17:41.866Z,98913.38
2022-08-01T11:20:11.459Z,98911.31
2022-08-01T11:23:00.569Z,98912.63
2022-08-01T11:26:05.422Z,98897.53
2022-08-01T11:28:33.102Z,98898.88
2022-08-01T11:31:02.951Z,98895.06
2022-08-01T11:33:40.728Z,98908.09
2022-08-01T11:36:11.000Z,98904.25
2022-08-01T11:38:38.164Z,98899.34
2022-08-01T11:41:12.134Z,98898.00
2022-08-01T11:43:59.416Z,98900.78
2022-08-01T11:47:09.924Z,98890.72
2022-08-01T11:49:38.485Z,98888.84
2022-08-01T11:52:06.651Z,98891.53
2022-08-01T11:54:41.358Z,98899.69
2022-08-01T11:57:10.330Z,98893.81
2022-08-01T11:59:59.891Z,98896.53
2022-08-01T12:02:39.402Z,98895.31
2022-08-01T12:05:08.194Z,98896.56
2022-08-01T12:07:36.667Z,98901.06
2022-08-01T12:10:07.952Z,98899.47
2022-08-01T12:12:36.291Z,98900.59
2022-08-01T12:15:06.925Z,98901.50
2022-08-01T12:17:57.367Z,98899.53
2022-08-01T12:20:31.593Z,98902.50
2022-08-01T12:23:03.905Z,98905.91
2022-08-01T12:25:31.077Z,98899.75
2022-08-01T12:28:02.647Z,98895.47
2022-08-01T12:30:31.977Z,98899.31
2022-08-01T12:32:59.407Z,98895.97
2022-08-01T12:35:27.848Z,98895.59
2022-08-01T12:38:00.125Z,98903.28
2022-08-01T12:40:28.765Z,98895.00
2022-08-01T12:42:59.573Z,98896.47
2022-08-01T12:45:30.374Z,98893.63
2022-08-01T12:48:00.602Z,98888.13
2022-08-01T12:50:31.744Z,98887.25
2022-08-01T12:52:59.571Z,98889.97
2022-08-01T12:55:34.195Z,98886.19
2022-08-01T12:58:05.125Z,98886.16
2022-08-01T13:00:32.308Z,98882.03
2022-08-01T13:03:02.235Z,98888.59
2022-08-01T13:05:29.702Z,98890.97
2022-08-01T13:07:56.889Z,98882.88
2022-08-01T13:10:30.694Z,98887.13
2022-08-01T13:12:58.741Z,98882.75
2022-08-01T13:15:32.605Z,98885.03
2022-08-01T13:18:00.605Z,98882.88
2022-08-01T13:20:29.429Z,98880.09
2022-08-01T13:22:56.798Z,98881.31
2022-08-01T13:25:27.329Z,98890.53
2022-08-01T13:28:13.546Z,98879.91
2022-08-01T13:30:44.549Z,98875.72
2022-08-01T13:33:14.567Z,98879.28
2022-08-01T13:35:42.932Z,98876.75
2022-08-01T13:38:10.144Z,98875.44
2022-08-01T13:40:37.344Z,98877.66
2022-08-01T13:43:04.807Z,98870.69
2022-08-01T13:45:32.029Z,98870.47
2022-08-01T13:48:12.504Z,98865.00
2022-08-01T13:50:53.368Z,98855.97
2022-08-01T13:53:29.314Z,98857.19
2022-08-01T13:55:56.834Z,98859.41
2022-08-01T13:58:24.233Z,98862.94
2022-08-01T14:00:51.532Z,98857.00
2022-08-01T14:03:19.021Z,98860.47
2022-08-01T14:05:46.233Z,98851.59
2022-08-01T14:08:13.451Z,98852.47
2022-08-01T14:10:42.416Z,98858.63
2022-08-01T14:13:11.609Z,98854.72
2022-08-01T14:15:39.901Z,98854.28
2022-08-01T14:18:09.625Z,98858.44
2022-08-01T14:20:38.059Z,98848.94
2022-08-01T14:23:06.390Z,98851.00
2022-08-01T14:26:03.884Z,98850.19
2022-08-01T14:28:28.899Z,98853.66
2022-08-01T14:30:56.804Z,98862.91
2022-08-01T14:33:24.172Z,98857.41
2022-08-01T14:36:05.287Z,98864.72
2022-08-01T14:38:38.826Z,98866.19
2022-08-01T14:41:06.521Z,98852.53
2022-08-01T14:43:34.194Z,98861.03
2022-08-01T14:46:02.049Z,98861.53
2022-08-01T14:48:30.469Z,98862.53
2022-08-01T14:50:58.250Z,98847.88
2022-08-01T14:53:25.724Z,98855.53
2022-08-01T14:55:52.921Z,98853.59
2022-08-01T14:58:20.109Z,98859.34
2022-08-01T15:00:47.845Z,98865.09
2022-08-01T15:03:15.141Z,98858.75
2022-08-01T15:05:42.346Z,98860.25
2022-08-01T15:08:10.043Z,98859.53
2022-08-01T15:10:37.281Z,98858.28
2022-08-01T15:13:04.564Z,98856.88
2022-08-01T15:15:32.036Z,98865.34
2022-08-01T15:17:59.473Z,98877.25
2022-08-01T15:20:28.040Z,98862.75
2022-08-01T15:22:55.538Z,98862.62
2022-08-01T15:25:23.919Z,98875.47
2022-08-01T15:27:51.114Z,98859.88
2022-08-01T15:30:23.371Z,98869.25
2022-08-01T15:32:54.721Z,98873.28
2022-08-01T15:35:22.208Z,98865.47
2022-08-01T15:37:50.412Z,98865.28
2022-08-01T15:40:17.625Z,98860.38
2022-08-01T15:42:45.300Z,98869.84
2022-08-01T15:45:44.500Z,98866.47
2022-08-01T15:48:04.812Z,98870.00
2022-08-01T15:50:31.992Z,98876.47
2022-08-01T15:52:59.232Z,98871.53
2022-08-01T15:55:27.198Z,98865.09
2022-08-01T15:57:54.416Z,98872.44
2022-08-01T16:00:21.842Z,98866.72
2022-08-01T16:02:49.342Z,98868.16
2022-08-01T16:05:17.122Z,98864.84
2022-08-01T16:07:59.991Z,98873.37
2022-08-01T16:10:29.782Z,98861.31
2022-08-01T16:12:57.415Z,98865.50
2022-08-01T16:15:36.737Z,98871.06
2022-08-01T16:18:05.751Z,98877.31
2022-08-01T16:20:33.057Z,98876.44
2022-08-01T16:23:00.307Z,98875.44
2022-08-01T16:25:27.757Z,98873.22
2022-08-01T16:27:54.927Z,98871.34
2022-08-01T16:30:22.213Z,98868.06
2022-08-01T16:32:59.375Z,98870.38
2022-08-01T16:35:34.576Z,98875.69
2022-08-01T16:38:07.135Z,98870.94
2022-08-01T16:40:46.525Z,98863.88
2022-08-01T16:43:15.912Z,98867.97
2022-08-01T16:45:43.486Z,98870.31
2022-08-01T16:48:12.221Z,98873.41
2022-08-01T16:50:40.423Z,98866.69
2022-08-01T16:53:07.610Z,98870.66
2022-08-01T16:55:45.824Z,98872.37
2022-08-01T16:58:19.872Z,98878.44
2022-08-01T17:00:56.885Z,98877.19
2022-08-01T17:03:52.721Z,98881.53
2022-08-01T17:06:12.902Z,98879.81
2022-08-01T17:08:46.158Z,98883.00
2022-08-01T17:11:15.444Z,98884.47
2022-08-01T17:13:43.045Z,98879.72
2022-08-01T17:16:10.492Z,98879.38
2022-08-01T17:18:37.968Z,98884.28
2022-08-01T17:21:05.412Z,98879.56
2022-08-01T17:23:33.828Z,98895.06
2022-08-01T17:26:00.992Z,98885.56
2022-08-01T17:28:28.455Z,98890.00
2022-08-01T17:30:55.766Z,98888.63
2022-08-01T17:33:22.952Z,98890.94
2022-08-01T17:35:50.409Z,98895.28
2022-08-01T17:38:18.332Z,98897.91
2022-08-01T17:40:45.724Z,98896.94
2022-08-01T17:43:14.115Z,98901.22
2022-08-01T17:45:50.910Z,98898.13
2022-08-01T17:48:19.565Z,98897.03
2022-08-01T17:50:47.083Z,98901.97
2022-08-01T17:53:15.049Z,98907.50
2022-08-01T17:55:55.301Z,98897.00
2022-08-01T17:58:36.759Z,98899.62
2022-08-01T18:01:14.711Z,98908.94
2022-08-01T18:03:42.633Z,98917.25
2022-08-01T18:06:10.494Z,98917.53
2022-08-01T18:08:40.527Z,98916.88
2022-08-01T18:11:08.450Z,98915.09
2022-08-01T18:13:36.696Z,98910.56
2022-08-01T18:16:09.359Z,98913.41
2022-08-01T18:18:36.732Z,98917.69
2022-08-01T18:21:04.329Z,98913.44
2022-08-01T18:23:33.601Z,98918.75
2022-08-01T18:26:02.389Z,98919.63
2022-08-01T18:28:34.091Z,98918.81
2022-08-01T18:31:04.964Z,98923.00
2022-08-01T18:33:32.264Z,98925.59
2022-08-01T18:36:03.508Z,98938.56
2022-08-01T18:38:32.837Z,98941.59
2022-08-01T18:41:00.961Z,98933.44
2022-08-01T18:43:28.675Z,98933.44
2022-08-01T18:45:57.534Z,98947.47
2022-08-01T18:48:24.944Z,98942.31
2022-08-01T18:50:54.017Z,98951.00
2022-08-01T18:53:23.902Z,98950.31
2022-08-01T18:55:51.212Z,98942.00
2022-08-01T18:58:18.804Z,98950.97
2022-08-01T19:00:46.335Z,98949.28
2022-08-01T19:03:15.418Z,98956.44
2022-08-01T19:05:43.078Z,98958.88
2022-08-01T19:08:11.421Z,98958.81
2022-08-01T19:10:39.277Z,98955.50
2022-08-01T19:13:07.739Z,98962.28
2022-08-01T19:15:35.965Z,98973.84
2022-08-01T19:18:03.523Z,98969.34
2022-08-01T19:20:30.747Z,98978.59
2022-08-01T19:22:58.261Z,98981.03
2022-08-01T19:25:25.471Z,98978.84
2022-08-01T19:27:53.098Z,98984.03
2022-08-01T19:30:20.567Z,98978.00
2022-08-01T19:32:48.915Z,98984.03
2022-08-01T19:35:17.145Z,98979.75
2022-08-01T19:37:46.032Z,98989.06
2022-08-01T19:40:26.809Z,98989.75
2022-08-01T19:42:56.550Z,98985.34
2022-08-01T19:45:24.668Z,98988.34
2022-08-01T19:47:56.804Z,98982.88
2022-08-01T19:50:41.050Z,98986.87
2022-08-01T19:53:08.345Z,98991.41
2022-08-01T19:55:39.288Z,98984.44
2022-08-01T20:00:54.732Z,98985.44
2022-08-01T20:03:22.369Z,98985.06
2022-08-01T20:05:51.036Z,98986.69
2022-08-01T20:08:18.247Z,98978.16
2022-08-01T20:10:46.098Z,98977.34
2022-08-01T20:13:13.314Z,98981.81
2022-08-01T20:15:40.524Z,98977.97
2022-08-01T20:18:08.062Z,98983.97
2022-08-01T20:20:35.384Z,98990.31
2022-08-01T20:23:02.562Z,98985.97
2022-08-01T20:25:39.634Z,98992.00
2022-08-01T20:28:11.209Z,98981.75
2022-08-01T20:30:39.086Z,98982.72
2022-08-01T20:33:06.803Z,98983.12
2022-08-01T20:35:52.342Z,98984.50
2022-08-01T20:38:22.920Z,98986.91
2022-08-01T20:40:54.049Z,98991.47
2022-08-01T20:43:21.922Z,98983.72
2022-08-01T20:45:49.461Z,98990.34
2022-08-01T20:48:18.099Z,98987.09
2022-08-01T20:51:04.880Z,98995.50
2022-08-01T20:53:35.226Z,98998.12
2022-08-01T20:56:26.253Z,99000.59
2022-08-01T20:58:59.484Z,98993.69
2022-08-01T21:01:28.858Z,98999.47
2022-08-01T21:04:05.033Z,99000.28
2022-08-01T21:06:34.305Z,98994.78
2022-08-01T21:09:02.362Z,99002.25
2022-08-01T21:11:31.125Z,99006.25
2022-08-01T21:13:58.591Z,99004.22
2022-08-01T21:16:26.672Z,99006.31
2022-08-01T21:19:18.488Z,99000.63
2022-08-01T21:21:50.029Z,98991.97
2022-08-01T21:24:18.668Z,98994.78
2022-08-01T21:26:46.585Z,99006.56
2022-08-01T21:29:14.005Z,99007.31
2022-08-01T21:31:41.570Z,98992.00
2022-08-01T21:34:09.571Z,99000.22
2022-08-01T21:36:36.788Z,98995.84
2022-08-01T21:39:05.667Z,98999.47
2022-08-01T21:42:03.375Z,98996.28
2022-08-01T21:44:20.334Z,98999.47
2022-08-01T21:46:48.398Z,99007.75
2022-08-01T21:49:15.827Z,98999.03
2022-08-01T21:51:45.663Z,99004.47
2022-08-01T21:54:27.400Z,99008.34
2022-08-01T21:57:13.505Z,99003.25
2022-08-01T21:59:51.581Z,99009.63
2022-08-01T22:02:25.058Z,99000.09
2022-08-01T22:04:53.471Z,99005.88
2022-08-01T22:07:21.021Z,99007.44
2022-08-01T22:09:51.535Z,99007.66
2022-08-01T22:12:19.481Z,99002.09
2022-08-01T22:14:48.071Z,99004.44
2022-08-01T22:17:17.722Z,99006.56
2022-08-01T22:19:48.599Z,99006.97
2022-08-01T22:22:50.453Z,99002.19
2022-08-01T22:25:06.907Z,99018.78
2022-08-01T22:28:06.106Z,99016.25
2022-08-01T22:30:21.814Z,99010.78
2022-08-01T22:33:15.647Z,99019.56
2022-08-01T22:35:36.662Z,99010.37
2022-08-01T22:38:07.289Z,99011.56
2022-08-01T22:40:40.429Z,99014.88
2022-08-01T22:43:10.978Z,99022.97
2022-08-01T22:46:10.754Z,99027.50
2022-08-01T22:48:51.828Z,99027.28
2022-08-01T22:51:22.349Z,99025.31
2022-08-01T22:53:53.827Z,99017.53
2022-08-01T22:56:21.403Z,99016.88
2022-08-01T22:58:48.592Z,99022.00
2022-08-01T23:01:21.026Z,99019.38
2022-08-01T23:03:50.077Z,99020.72
2022-08-01T23:06:21.256Z,99020.34
2022-08-01T23:08:49.181Z,99025.56
2022-08-01T23:11:16.381Z,99024.34
2022-08-01T23:13:43.579Z,99017.09
2022-08-01T23:16:14.390Z,99022.88
2022-08-01T23:18:46.076Z,99026.75
2022-08-01T23:21:15.780Z,99029.06
2022-08-01T23:23:42.957Z,99026.06
2022-08-01T23:26:10.139Z,99029.81
2022-08-01T23:28:37.600Z,99027.97
2022-08-01T23:31:04.967Z,99039.66
2022-08-01T23:33:32.159Z,99034.00
2022-08-01T23:35:59.762Z,99036.66
2022-08-01T23:38:26.941Z,99040.09
2022-08-01T23:40:54.139Z,99039.19
2022-08-01T23:43:21.646Z,99039.50
2022-08-01T23:46:03.265Z,99035.03
2022-08-01T23:48:36.805Z,99030.34
2022-08-01T23:51:05.202Z,99023.56
2022-08-01T23:53:33.717Z,99026.22
2022-08-01T23:56:03.654Z,99018.37
2022-08-01T23:58:33.478Z,99019.84
